sensor_id;sensor_type;location;lat;lon;timestamp;temperature;humidity
8792;DHT22;4432;50.890;4.744;2023-02-03T00:01:32;9.80;99.90
8792;DHT22;4432;50.890;4.744;2023-02-03T00:03:58;9.70;99.90
8792;DHT22;4432;50.890;4.744;2023-02-03T00:06:24;9.80;99.90
8792;DHT22;4432;50.890;4.744;2023-02-03T00:08:53;9.70;99.90
8792;DHT22;4432;50.890;4.744;2023-02-03T00:11:19;9.70;99.90
8792;DHT22;4432;50.890;4.744;2023-02-03T00:13:45;9.70;99.90
8792;DHT22;4432;50.890;4.744;2023-02-03T00:16:11;9.70;99.90
8792;DHT22;4432;50.890;4.744;2023-02-03T00:18:36;9.70;99.90
8792;DHT22;4432;50.890;4.744;2023-02-03T00:21:04;9.70;99.90
8792;DHT22;4432;50.890;4.744;2023-02-03T00:23:30;9.70;99.90
8792;DHT22;4432;50.890;4.744;2023-02-03T00:26:05;9.70;99.90
8792;DHT22;4432;50.890;4.744;2023-02-03T00:28:31;9.70;99.90
8792;DHT22;4432;50.890;4.744;2023-02-03T00:30:56;9.70;99.90
8792;DHT22;4432;50.890;4.744;2023-02-03T00:33:22;9.70;99.90
8792;DHT22;4432;50.890;4.744;2023-02-03T00:35:48;9.70;99.90
8792;DHT22;4432;50.890;4.744;2023-02-03T00:38:14;9.60;99.90
8792;DHT22;4432;50.890;4.744;2023-02-03T00:40:40;9.60;99.90
8792;DHT22;4432;50.890;4.744;2023-02-03T00:43:05;9.60;99.90
8792;DHT22;4432;50.890;4.744;2023-02-03T00:45:31;9.60;99.90
8792;DHT22;4432;50.890;4.744;2023-02-03T00:47:57;9.60;99.90
8792;DHT22;4432;50.890;4.744;2023-02-03T00:50:23;9.60;99.90
8792;DHT22;4432;50.890;4.744;2023-02-03T00:52:49;9.60;99.90
8792;DHT22;4432;50.890;4.744;2023-02-03T00:55:14;9.60;99.90
8792;DHT22;4432;50.890;4.744;2023-02-03T00:57:40;9.60;99.90
8792;DHT22;4432;50.890;4.744;2023-02-03T01:00:06;9.60;99.90
8792;DHT22;4432;50.890;4.744;2023-02-03T01:02:32;9.60;99.90
8792;DHT22;4432;50.890;4.744;2023-02-03T01:04:58;9.60;99.90
8792;DHT22;4432;50.890;4.744;2023-02-03T01:07:24;9.60;99.90
8792;DHT22;4432;50.890;4.744;2023-02-03T01:09:50;9.60;99.90
8792;DHT22;4432;50.890;4.744;2023-02-03T01:12:16;9.60;99.90
8792;DHT22;4432;50.890;4.744;2023-02-03T01:14:41;9.50;99.90
8792;DHT22;4432;50.890;4.744;2023-02-03T01:17:07;9.60;99.90
8792;DHT22;4432;50.890;4.744;2023-02-03T01:19:33;9.60;99.90
8792;DHT22;4432;50.890;4.744;2023-02-03T01:21:59;9.60;99.90
8792;DHT22;4432;50.890;4.744;2023-02-03T01:24:25;9.70;99.90
8792;DHT22;4432;50.890;4.744;2023-02-03T01:26:50;9.70;99.90
8792;DHT22;4432;50.890;4.744;2023-02-03T01:29:16;9.70;99.90
8792;DHT22;4432;50.890;4.744;2023-02-03T01:31:42;9.70;99.90
8792;DHT22;4432;50.890;4.744;2023-02-03T01:34:13;9.70;99.90
8792;DHT22;4432;50.890;4.744;2023-02-03T01:36:41;9.70;99.90
8792;DHT22;4432;50.890;4.744;2023-02-03T01:39:06;9.70;99.90
8792;DHT22;4432;50.890;4.744;2023-02-03T01:41:37;9.80;99.90
8792;DHT22;4432;50.890;4.744;2023-02-03T01:46:58;9.70;99.90
8792;DHT22;4432;50.890;4.744;2023-02-03T01:49:28;9.70;99.90
8792;DHT22;4432;50.890;4.744;2023-02-03T01:51:54;9.70;99.90
8792;DHT22;4432;50.890;4.744;2023-02-03T01:54:30;9.70;99.90
8792;DHT22;4432;50.890;4.744;2023-02-03T01:57:06;9.70;99.90
8792;DHT22;4432;50.890;4.744;2023-02-03T01:59:36;9.70;99.90
8792;DHT22;4432;50.890;4.744;2023-02-03T02:02:03;9.70;99.90
8792;DHT22;4432;50.890;4.744;2023-02-03T02:07:19;9.70;99.90
8792;DHT22;4432;50.890;4.744;2023-02-03T02:09:46;9.80;99.90
8792;DHT22;4432;50.890;4.744;2023-02-03T02:12:12;9.70;99.90
8792;DHT22;4432;50.890;4.744;2023-02-03T02:14:38;9.70;99.90
8792;DHT22;4432;50.890;4.744;2023-02-03T02:17:15;9.70;99.90
8792;DHT22;4432;50.890;4.744;2023-02-03T02:22:29;9.70;99.90
8792;DHT22;4432;50.890;4.744;2023-02-03T02:38:57;9.70;99.90
8792;DHT22;4432;50.890;4.744;2023-02-03T02:41:34;9.70;99.90
8792;DHT22;4432;50.890;4.744;2023-02-03T02:44:09;9.70;99.90
8792;DHT22;4432;50.890;4.744;2023-02-03T02:47:15;9.70;99.90
8792;DHT22;4432;50.890;4.744;2023-02-03T02:52:13;9.70;99.90
8792;DHT22;4432;50.890;4.744;2023-02-03T02:54:44;9.70;99.90
8792;DHT22;4432;50.890;4.744;2023-02-03T02:57:12;9.70;99.90
8792;DHT22;4432;50.890;4.744;2023-02-03T02:59:38;9.70;99.90
8792;DHT22;4432;50.890;4.744;2023-02-03T03:02:04;9.70;99.90
8792;DHT22;4432;50.890;4.744;2023-02-03T03:04:32;9.70;99.90
8792;DHT22;4432;50.890;4.744;2023-02-03T03:07:10;9.60;99.90
8792;DHT22;4432;50.890;4.744;2023-02-03T03:09:43;9.70;99.90
8792;DHT22;4432;50.890;4.744;2023-02-03T03:12:16;9.60;99.90
8792;DHT22;4432;50.890;4.744;2023-02-03T03:14:54;9.60;99.90
8792;DHT22;4432;50.890;4.744;2023-02-03T03:17:26;9.60;99.90
8792;DHT22;4432;50.890;4.744;2023-02-03T03:20:01;9.60;99.90
8792;DHT22;4432;50.890;4.744;2023-02-03T03:22:31;9.60;99.90
8792;DHT22;4432;50.890;4.744;2023-02-03T03:25:17;9.60;99.90
8792;DHT22;4432;50.890;4.744;2023-02-03T03:27:48;9.70;99.90
8792;DHT22;4432;50.890;4.744;2023-02-03T03:30:21;9.70;99.90
8792;DHT22;4432;50.890;4.744;2023-02-03T03:32:48;9.70;99.90
8792;DHT22;4432;50.890;4.744;2023-02-03T03:35:15;9.70;99.90
8792;DHT22;4432;50.890;4.744;2023-02-03T03:37:50;9.70;99.90
8792;DHT22;4432;50.890;4.744;2023-02-03T03:40:37;9.70;99.90
8792;DHT22;4432;50.890;4.744;2023-02-03T03:43:09;9.70;99.90
8792;DHT22;4432;50.890;4.744;2023-02-03T03:45:48;9.70;99.90
8792;DHT22;4432;50.890;4.744;2023-02-03T03:48:20;9.80;99.90
8792;DHT22;4432;50.890;4.744;2023-02-03T03:50:55;9.80;99.90
8792;DHT22;4432;50.890;4.744;2023-02-03T03:53:23;9.70;99.90
8792;DHT22;4432;50.890;4.744;2023-02-03T03:55:52;9.80;99.90
8792;DHT22;4432;50.890;4.744;2023-02-03T03:58:26;9.80;99.90
8792;DHT22;4432;50.890;4.744;2023-02-03T04:00:56;9.80;99.90
8792;DHT22;4432;50.890;4.744;2023-02-03T04:03:26;9.80;99.90
8792;DHT22;4432;50.890;4.744;2023-02-03T04:05:52;9.70;99.90
8792;DHT22;4432;50.890;4.744;2023-02-03T04:08:18;9.70;99.90
8792;DHT22;4432;50.890;4.744;2023-02-03T04:10:44;9.80;99.90
8792;DHT22;4432;50.890;4.744;2023-02-03T04:13:11;9.80;99.90
8792;DHT22;4432;50.890;4.744;2023-02-03T04:15:37;9.70;99.90
8792;DHT22;4432;50.890;4.744;2023-02-03T04:18:04;9.70;99.90
8792;DHT22;4432;50.890;4.744;2023-02-03T04:20:31;9.80;99.90
8792;DHT22;4432;50.890;4.744;2023-02-03T04:22:57;9.80;99.90
8792;DHT22;4432;50.890;4.744;2023-02-03T04:25:24;9.80;99.90
8792;DHT22;4432;50.890;4.744;2023-02-03T04:27:50;9.80;99.90
8792;DHT22;4432;50.890;4.744;2023-02-03T04:30:16;9.80;99.90
8792;DHT22;4432;50.890;4.744;2023-02-03T04:32:44;9.80;99.90
8792;DHT22;4432;50.890;4.744;2023-02-03T04:35:10;9.80;99.90
8792;DHT22;4432;50.890;4.744;2023-02-03T04:37:36;9.80;99.90
8792;DHT22;4432;50.890;4.744;2023-02-03T04:40:01;9.80;99.90
8792;DHT22;4432;50.890;4.744;2023-02-03T04:42:27;9.80;99.90
8792;DHT22;4432;50.890;4.744;2023-02-03T04:44:53;9.80;99.90
8792;DHT22;4432;50.890;4.744;2023-02-03T04:47:19;9.80;99.90
8792;DHT22;4432;50.890;4.744;2023-02-03T04:49:45;9.80;99.90
8792;DHT22;4432;50.890;4.744;2023-02-03T04:52:11;9.70;99.90
8792;DHT22;4432;50.890;4.744;2023-02-03T04:54:37;9.70;99.90
8792;DHT22;4432;50.890;4.744;2023-02-03T04:57:04;9.70;99.90
8792;DHT22;4432;50.890;4.744;2023-02-03T04:59:30;9.70;99.90
8792;DHT22;4432;50.890;4.744;2023-02-03T05:01:56;9.70;99.90
8792;DHT22;4432;50.890;4.744;2023-02-03T05:04:21;9.70;99.90
8792;DHT22;4432;50.890;4.744;2023-02-03T05:06:47;9.70;99.90
8792;DHT22;4432;50.890;4.744;2023-02-03T05:09:13;9.70;99.90
8792;DHT22;4432;50.890;4.744;2023-02-03T05:11:39;9.70;99.90
8792;DHT22;4432;50.890;4.744;2023-02-03T05:14:05;9.70;99.90
8792;DHT22;4432;50.890;4.744;2023-02-03T05:16:30;9.70;99.90
8792;DHT22;4432;50.890;4.744;2023-02-03T05:18:56;9.70;99.90
8792;DHT22;4432;50.890;4.744;2023-02-03T05:21:22;9.70;99.90
8792;DHT22;4432;50.890;4.744;2023-02-03T05:23:47;9.70;99.90
8792;DHT22;4432;50.890;4.744;2023-02-03T05:26:13;9.70;99.90
8792;DHT22;4432;50.890;4.744;2023-02-03T05:28:39;9.70;99.90
8792;DHT22;4432;50.890;4.744;2023-02-03T05:31:05;9.80;99.90
8792;DHT22;4432;50.890;4.744;2023-02-03T05:33:31;9.70;99.90
8792;DHT22;4432;50.890;4.744;2023-02-03T05:35:57;9.70;99.90
8792;DHT22;4432;50.890;4.744;2023-02-03T05:38:23;9.70;99.90
8792;DHT22;4432;50.890;4.744;2023-02-03T05:40:50;9.70;99.90
8792;DHT22;4432;50.890;4.744;2023-02-03T05:43:35;9.80;99.90
8792;DHT22;4432;50.890;4.744;2023-02-03T05:46:02;9.80;99.90
8792;DHT22;4432;50.890;4.744;2023-02-03T05:48:28;9.70;99.90
8792;DHT22;4432;50.890;4.744;2023-02-03T05:50:54;9.70;99.90
8792;DHT22;4432;50.890;4.744;2023-02-03T05:53:20;9.70;99.90
8792;DHT22;4432;50.890;4.744;2023-02-03T05:55:46;9.70;99.90
8792;DHT22;4432;50.890;4.744;2023-02-03T05:58:12;9.70;99.90
8792;DHT22;4432;50.890;4.744;2023-02-03T06:00:37;9.70;99.90
8792;DHT22;4432;50.890;4.744;2023-02-03T06:03:03;9.70;99.90
8792;DHT22;4432;50.890;4.744;2023-02-03T06:05:30;9.70;99.90
8792;DHT22;4432;50.890;4.744;2023-02-03T06:07:56;9.80;99.90
8792;DHT22;4432;50.890;4.744;2023-02-03T06:10:22;9.70;99.90
8792;DHT22;4432;50.890;4.744;2023-02-03T06:12:49;9.70;99.90
8792;DHT22;4432;50.890;4.744;2023-02-03T06:15:15;9.70;99.90
8792;DHT22;4432;50.890;4.744;2023-02-03T06:17:45;9.70;99.90
8792;DHT22;4432;50.890;4.744;2023-02-03T06:20:13;9.70;99.90
8792;DHT22;4432;50.890;4.744;2023-02-03T06:22:39;9.70;99.90
8792;DHT22;4432;50.890;4.744;2023-02-03T06:25:05;9.70;99.90
8792;DHT22;4432;50.890;4.744;2023-02-03T06:27:31;9.80;99.90
8792;DHT22;4432;50.890;4.744;2023-02-03T06:29:56;9.80;99.90
8792;DHT22;4432;50.890;4.744;2023-02-03T06:32:22;9.80;99.90
8792;DHT22;4432;50.890;4.744;2023-02-03T06:34:48;9.70;99.90
8792;DHT22;4432;50.890;4.744;2023-02-03T06:37:14;9.70;99.90
8792;DHT22;4432;50.890;4.744;2023-02-03T06:39:39;9.70;99.90
8792;DHT22;4432;50.890;4.744;2023-02-03T06:42:05;9.70;99.90
8792;DHT22;4432;50.890;4.744;2023-02-03T06:44:31;9.70;99.90
8792;DHT22;4432;50.890;4.744;2023-02-03T06:46:57;9.80;99.90
8792;DHT22;4432;50.890;4.744;2023-02-03T06:49:23;9.70;99.90
8792;DHT22;4432;50.890;4.744;2023-02-03T06:51:50;9.70;99.90
8792;DHT22;4432;50.890;4.744;2023-02-03T06:54:17;9.70;99.90
8792;DHT22;4432;50.890;4.744;2023-02-03T06:56:43;9.70;99.90
8792;DHT22;4432;50.890;4.744;2023-02-03T06:59:08;9.80;99.90
8792;DHT22;4432;50.890;4.744;2023-02-03T07:01:35;9.80;99.90
8792;DHT22;4432;50.890;4.744;2023-02-03T07:04:01;9.70;99.90
8792;DHT22;4432;50.890;4.744;2023-02-03T07:06:28;9.80;99.90
8792;DHT22;4432;50.890;4.744;2023-02-03T07:08:57;9.80;99.90
8792;DHT22;4432;50.890;4.744;2023-02-03T07:11:23;9.80;99.90
8792;DHT22;4432;50.890;4.744;2023-02-03T07:13:50;9.80;99.90
8792;DHT22;4432;50.890;4.744;2023-02-03T07:16:15;9.80;99.90
8792;DHT22;4432;50.890;4.744;2023-02-03T07:18:41;9.80;99.90
8792;DHT22;4432;50.890;4.744;2023-02-03T07:21:07;9.80;99.90
8792;DHT22;4432;50.890;4.744;2023-02-03T07:23:33;9.80;99.90
8792;DHT22;4432;50.890;4.744;2023-02-03T07:26:03;9.80;99.90
8792;DHT22;4432;50.890;4.744;2023-02-03T07:28:30;9.80;99.90
8792;DHT22;4432;50.890;4.744;2023-02-03T07:30:56;9.80;99.90
8792;DHT22;4432;50.890;4.744;2023-02-03T07:33:22;9.90;99.90
8792;DHT22;4432;50.890;4.744;2023-02-03T07:35:55;9.80;99.90
8792;DHT22;4432;50.890;4.744;2023-02-03T07:38:21;9.90;99.90
8792;DHT22;4432;50.890;4.744;2023-02-03T07:40:47;9.90;99.90
8792;DHT22;4432;50.890;4.744;2023-02-03T07:43:13;9.90;99.90
8792;DHT22;4432;50.890;4.744;2023-02-03T07:45:39;9.90;99.90
8792;DHT22;4432;50.890;4.744;2023-02-03T07:48:05;10.00;99.90
8792;DHT22;4432;50.890;4.744;2023-02-03T07:50:31;10.00;99.90
8792;DHT22;4432;50.890;4.744;2023-02-03T07:52:58;10.00;99.90
8792;DHT22;4432;50.890;4.744;2023-02-03T07:55:24;10.00;99.90
8792;DHT22;4432;50.890;4.744;2023-02-03T07:57:52;10.00;99.90
8792;DHT22;4432;50.890;4.744;2023-02-03T08:00:18;10.00;99.90
8792;DHT22;4432;50.890;4.744;2023-02-03T08:02:43;10.00;99.90
8792;DHT22;4432;50.890;4.744;2023-02-03T08:05:10;10.00;99.90
8792;DHT22;4432;50.890;4.744;2023-02-03T08:07:36;10.00;99.90
8792;DHT22;4432;50.890;4.744;2023-02-03T08:10:03;10.00;99.90
8792;DHT22;4432;50.890;4.744;2023-02-03T08:12:29;10.00;99.90
8792;DHT22;4432;50.890;4.744;2023-02-03T08:14:55;10.00;99.90
8792;DHT22;4432;50.890;4.744;2023-02-03T08:17:21;10.10;99.90
8792;DHT22;4432;50.890;4.744;2023-02-03T08:19:46;10.10;99.90
8792;DHT22;4432;50.890;4.744;2023-02-03T08:22:12;10.10;99.90
8792;DHT22;4432;50.890;4.744;2023-02-03T08:24:44;10.10;99.90
8792;DHT22;4432;50.890;4.744;2023-02-03T08:27:30;10.10;99.90
8792;DHT22;4432;50.890;4.744;2023-02-03T08:29:57;10.20;99.90
8792;DHT22;4432;50.890;4.744;2023-02-03T08:32:23;10.20;99.90
8792;DHT22;4432;50.890;4.744;2023-02-03T08:34:50;10.20;99.90
8792;DHT22;4432;50.890;4.744;2023-02-03T08:37:17;10.20;99.90
8792;DHT22;4432;50.890;4.744;2023-02-03T08:39:44;10.20;99.90
8792;DHT22;4432;50.890;4.744;2023-02-03T08:42:10;10.20;99.90
8792;DHT22;4432;50.890;4.744;2023-02-03T08:44:36;10.30;99.90
8792;DHT22;4432;50.890;4.744;2023-02-03T08:47:04;10.30;99.90
8792;DHT22;4432;50.890;4.744;2023-02-03T08:49:30;10.30;99.90
8792;DHT22;4432;50.890;4.744;2023-02-03T08:51:56;10.40;99.90
8792;DHT22;4432;50.890;4.744;2023-02-03T08:54:23;10.40;99.90
8792;DHT22;4432;50.890;4.744;2023-02-03T08:56:50;10.40;99.90
8792;DHT22;4432;50.890;4.744;2023-02-03T08:59:15;10.40;99.90
8792;DHT22;4432;50.890;4.744;2023-02-03T09:01:41;10.40;99.90
8792;DHT22;4432;50.890;4.744;2023-02-03T09:04:14;10.40;99.90
8792;DHT22;4432;50.890;4.744;2023-02-03T09:06:42;10.50;99.90
8792;DHT22;4432;50.890;4.744;2023-02-03T09:09:08;10.50;99.90
8792;DHT22;4432;50.890;4.744;2023-02-03T09:11:35;10.50;99.90
8792;DHT22;4432;50.890;4.744;2023-02-03T09:14:00;10.50;99.90
8792;DHT22;4432;50.890;4.744;2023-02-03T09:16:26;10.50;99.90
8792;DHT22;4432;50.890;4.744;2023-02-03T09:18:52;10.50;99.90
8792;DHT22;4432;50.890;4.744;2023-02-03T09:21:17;10.50;99.90
8792;DHT22;4432;50.890;4.744;2023-02-03T09:23:44;10.50;99.90
8792;DHT22;4432;50.890;4.744;2023-02-03T09:26:14;10.50;99.90
8792;DHT22;4432;50.890;4.744;2023-02-03T09:28:40;10.50;99.90
8792;DHT22;4432;50.890;4.744;2023-02-03T09:31:12;10.50;99.90
8792;DHT22;4432;50.890;4.744;2023-02-03T09:33:39;10.40;99.90
8792;DHT22;4432;50.890;4.744;2023-02-03T09:36:06;10.40;99.90
8792;DHT22;4432;50.890;4.744;2023-02-03T09:38:33;10.40;99.90
8792;DHT22;4432;50.890;4.744;2023-02-03T09:46:05;10.60;99.90
8792;DHT22;4432;50.890;4.744;2023-02-03T09:48:37;10.60;99.90
8792;DHT22;4432;50.890;4.744;2023-02-03T09:51:07;10.60;99.90
8792;DHT22;4432;50.890;4.744;2023-02-03T09:53:44;10.60;99.90
8792;DHT22;4432;50.890;4.744;2023-02-03T09:56:33;10.70;99.90
8792;DHT22;4432;50.890;4.744;2023-02-03T09:59:00;10.70;99.90
8792;DHT22;4432;50.890;4.744;2023-02-03T10:01:39;10.70;99.90
8792;DHT22;4432;50.890;4.744;2023-02-03T10:04:46;10.80;99.90
8792;DHT22;4432;50.890;4.744;2023-02-03T10:07:33;10.80;99.90
8792;DHT22;4432;50.890;4.744;2023-02-03T10:19:33;11.00;99.90
8792;DHT22;4432;50.890;4.744;2023-02-03T10:22:02;11.00;99.90
8792;DHT22;4432;50.890;4.744;2023-02-03T10:24:42;11.10;99.90
8792;DHT22;4432;50.890;4.744;2023-02-03T10:27:21;11.10;99.90
8792;DHT22;4432;50.890;4.744;2023-02-03T10:29:56;11.10;99.90
8792;DHT22;4432;50.890;4.744;2023-02-03T10:32:24;11.10;99.90
8792;DHT22;4432;50.890;4.744;2023-02-03T10:34:51;11.20;99.90
8792;DHT22;4432;50.890;4.744;2023-02-03T10:37:41;11.20;99.90
8792;DHT22;4432;50.890;4.744;2023-02-03T10:40:12;11.20;99.90
8792;DHT22;4432;50.890;4.744;2023-02-03T10:42:38;11.20;99.90
8792;DHT22;4432;50.890;4.744;2023-02-03T10:45:23;11.20;99.90
8792;DHT22;4432;50.890;4.744;2023-02-03T10:47:51;11.20;99.90
8792;DHT22;4432;50.890;4.744;2023-02-03T10:50:23;11.20;99.90
8792;DHT22;4432;50.890;4.744;2023-02-03T10:56:04;11.10;99.90
8792;DHT22;4432;50.890;4.744;2023-02-03T10:58:32;11.10;99.90
8792;DHT22;4432;50.890;4.744;2023-02-03T11:01:12;11.10;99.90
8792;DHT22;4432;50.890;4.744;2023-02-03T11:03:53;11.00;99.90
8792;DHT22;4432;50.890;4.744;2023-02-03T11:06:19;10.90;99.90
8792;DHT22;4432;50.890;4.744;2023-02-03T11:08:48;10.90;99.90
8792;DHT22;4432;50.890;4.744;2023-02-03T11:11:20;10.90;99.90
8792;DHT22;4432;50.890;4.744;2023-02-03T11:13:55;10.90;99.90
8792;DHT22;4432;50.890;4.744;2023-02-03T11:16:35;10.90;99.90
8792;DHT22;4432;50.890;4.744;2023-02-03T11:19:19;10.90;99.90
8792;DHT22;4432;50.890;4.744;2023-02-03T11:21:48;10.90;99.90
8792;DHT22;4432;50.890;4.744;2023-02-03T11:24:31;10.80;99.90
8792;DHT22;4432;50.890;4.744;2023-02-03T11:27:15;10.90;99.90
8792;DHT22;4432;50.890;4.744;2023-02-03T11:30:05;10.90;99.90
8792;DHT22;4432;50.890;4.744;2023-02-03T11:32:37;10.90;99.90
8792;DHT22;4432;50.890;4.744;2023-02-03T11:35:22;11.00;99.90
8792;DHT22;4432;50.890;4.744;2023-02-03T11:37:53;11.00;99.90
8792;DHT22;4432;50.890;4.744;2023-02-03T11:48:12;11.30;99.90
8792;DHT22;4432;50.890;4.744;2023-02-03T11:51:03;11.20;99.90
8792;DHT22;4432;50.890;4.744;2023-02-03T12:20:12;11.10;99.90
8792;DHT22;4432;50.890;4.744;2023-02-03T12:22:46;11.10;99.90
8792;DHT22;4432;50.890;4.744;2023-02-03T12:30:38;11.10;99.90
8792;DHT22;4432;50.890;4.744;2023-02-03T12:33:37;11.20;99.90
8792;DHT22;4432;50.890;4.744;2023-02-03T12:36:20;11.10;99.90
8792;DHT22;4432;50.890;4.744;2023-02-03T12:39:34;11.10;99.90
8792;DHT22;4432;50.890;4.744;2023-02-03T12:41:57;11.20;99.90
8792;DHT22;4432;50.890;4.744;2023-02-03T12:44:41;11.20;99.90
8792;DHT22;4432;50.890;4.744;2023-02-03T12:47:20;11.30;99.90
8792;DHT22;4432;50.890;4.744;2023-02-03T12:52:41;11.30;99.90
8792;DHT22;4432;50.890;4.744;2023-02-03T12:55:25;11.30;99.90
8792;DHT22;4432;50.890;4.744;2023-02-03T12:57:59;11.40;99.90
8792;DHT22;4432;50.890;4.744;2023-02-03T13:11:47;11.50;99.90
8792;DHT22;4432;50.890;4.744;2023-02-03T13:14:38;11.40;99.90
8792;DHT22;4432;50.890;4.744;2023-02-03T13:20:11;11.60;99.90
8792;DHT22;4432;50.890;4.744;2023-02-03T13:22:38;11.70;99.90
8792;DHT22;4432;50.890;4.744;2023-02-03T13:33:25;11.90;99.90
8792;DHT22;4432;50.890;4.744;2023-02-03T13:39:30;11.90;99.90
8792;DHT22;4432;50.890;4.744;2023-02-03T13:42:21;11.80;99.90
8792;DHT22;4432;50.890;4.744;2023-02-03T13:44:52;11.80;99.90
8792;DHT22;4432;50.890;4.744;2023-02-03T13:47:28;11.70;99.90
8792;DHT22;4432;50.890;4.744;2023-02-03T13:50:06;11.60;99.90
8792;DHT22;4432;50.890;4.744;2023-02-03T13:52:39;11.60;99.90
8792;DHT22;4432;50.890;4.744;2023-02-03T13:55:07;11.50;99.90
8792;DHT22;4432;50.890;4.744;2023-02-03T13:57:37;11.50;99.90
8792;DHT22;4432;50.890;4.744;2023-02-03T14:02:54;11.50;99.90
8792;DHT22;4432;50.890;4.744;2023-02-03T14:05:44;11.50;99.90
8792;DHT22;4432;50.890;4.744;2023-02-03T14:16:51;11.40;99.90
8792;DHT22;4432;50.890;4.744;2023-02-03T14:24:34;11.30;99.90
8792;DHT22;4432;50.890;4.744;2023-02-03T14:27:04;11.30;99.90
8792;DHT22;4432;50.890;4.744;2023-02-03T14:29:33;11.30;99.90
8792;DHT22;4432;50.890;4.744;2023-02-03T14:32:00;11.30;99.90
8792;DHT22;4432;50.890;4.744;2023-02-03T14:34:32;11.30;99.90
8792;DHT22;4432;50.890;4.744;2023-02-03T14:37:22;11.30;99.90
8792;DHT22;4432;50.890;4.744;2023-02-03T14:42:56;11.30;99.90
8792;DHT22;4432;50.890;4.744;2023-02-03T14:45:41;11.30;99.90
8792;DHT22;4432;50.890;4.744;2023-02-03T14:48:40;11.40;99.90
8792;DHT22;4432;50.890;4.744;2023-02-03T14:54:11;11.40;99.90
8792;DHT22;4432;50.890;4.744;2023-02-03T14:56:49;11.40;99.90
8792;DHT22;4432;50.890;4.744;2023-02-03T15:00:02;11.40;99.90
8792;DHT22;4432;50.890;4.744;2023-02-03T15:02:30;11.40;99.90
8792;DHT22;4432;50.890;4.744;2023-02-03T15:07:46;11.50;99.90
8792;DHT22;4432;50.890;4.744;2023-02-03T15:10:26;11.50;99.90
8792;DHT22;4432;50.890;4.744;2023-02-03T15:12:56;11.50;99.90
8792;DHT22;4432;50.890;4.744;2023-02-03T15:17:59;11.50;99.90
8792;DHT22;4432;50.890;4.744;2023-02-03T15:20:51;11.50;99.90
8792;DHT22;4432;50.890;4.744;2023-02-03T15:23:27;11.40;99.90
8792;DHT22;4432;50.890;4.744;2023-02-03T15:25:58;11.40;99.90
8792;DHT22;4432;50.890;4.744;2023-02-03T15:28:25;11.40;99.90
8792;DHT22;4432;50.890;4.744;2023-02-03T15:33:24;11.30;99.90
8792;DHT22;4432;50.890;4.744;2023-02-03T15:35:57;11.30;99.90
8792;DHT22;4432;50.890;4.744;2023-02-03T15:38:27;11.30;99.90
8792;DHT22;4432;50.890;4.744;2023-02-03T15:40:55;11.40;99.90
8792;DHT22;4432;50.890;4.744;2023-02-03T15:46:05;11.40;99.90
8792;DHT22;4432;50.890;4.744;2023-02-03T15:56:33;11.30;99.90
8792;DHT22;4432;50.890;4.744;2023-02-03T15:59:02;11.30;99.90
8792;DHT22;4432;50.890;4.744;2023-02-03T16:01:29;11.30;99.90
8792;DHT22;4432;50.890;4.744;2023-02-03T16:03:56;11.30;99.90
8792;DHT22;4432;50.890;4.744;2023-02-03T16:06:27;11.30;99.90
8792;DHT22;4432;50.890;4.744;2023-02-03T16:08:55;11.30;99.90
8792;DHT22;4432;50.890;4.744;2023-02-03T16:13:58;11.20;99.90
8792;DHT22;4432;50.890;4.744;2023-02-03T16:19:14;11.10;99.90
8792;DHT22;4432;50.890;4.744;2023-02-03T16:21:55;11.10;99.90
8792;DHT22;4432;50.890;4.744;2023-02-03T16:24:40;11.10;99.90
8792;DHT22;4432;50.890;4.744;2023-02-03T16:29:53;11.00;99.90
8792;DHT22;4432;50.890;4.744;2023-02-03T16:32:37;11.00;99.90
8792;DHT22;4432;50.890;4.744;2023-02-03T16:35:22;10.90;99.90
8792;DHT22;4432;50.890;4.744;2023-02-03T16:38:13;10.90;99.90
8792;DHT22;4432;50.890;4.744;2023-02-03T16:40:58;10.80;99.90
8792;DHT22;4432;50.890;4.744;2023-02-03T16:43:43;10.80;99.90
8792;DHT22;4432;50.890;4.744;2023-02-03T16:46:28;10.80;99.90
8792;DHT22;4432;50.890;4.744;2023-02-03T16:49:12;10.70;99.90
8792;DHT22;4432;50.890;4.744;2023-02-03T16:51:56;10.80;99.90
8792;DHT22;4432;50.890;4.744;2023-02-03T16:54:22;10.80;99.90
8792;DHT22;4432;50.890;4.744;2023-02-03T16:56:49;10.70;99.90
8792;DHT22;4432;50.890;4.744;2023-02-03T16:59:16;10.80;99.90
8792;DHT22;4432;50.890;4.744;2023-02-03T17:01:43;10.80;99.90
8792;DHT22;4432;50.890;4.744;2023-02-03T17:04:09;10.80;99.90
8792;DHT22;4432;50.890;4.744;2023-02-03T17:06:37;10.80;99.90
8792;DHT22;4432;50.890;4.744;2023-02-03T17:09:03;10.80;99.90
8792;DHT22;4432;50.890;4.744;2023-02-03T17:11:29;10.80;99.90
8792;DHT22;4432;50.890;4.744;2023-02-03T17:13:56;10.80;99.90
8792;DHT22;4432;50.890;4.744;2023-02-03T17:16:24;10.70;99.90
8792;DHT22;4432;50.890;4.744;2023-02-03T17:18:50;10.80;99.90
8792;DHT22;4432;50.890;4.744;2023-02-03T17:21:25;10.70;99.90
8792;DHT22;4432;50.890;4.744;2023-02-03T17:23:51;10.70;99.90
8792;DHT22;4432;50.890;4.744;2023-02-03T17:26:17;10.70;99.90
8792;DHT22;4432;50.890;4.744;2023-02-03T17:28:43;10.70;99.90
8792;DHT22;4432;50.890;4.744;2023-02-03T17:31:19;10.70;99.90
8792;DHT22;4432;50.890;4.744;2023-02-03T17:33:48;10.60;99.90
8792;DHT22;4432;50.890;4.744;2023-02-03T17:36:16;10.60;99.90
8792;DHT22;4432;50.890;4.744;2023-02-03T17:38:45;10.60;99.90
8792;DHT22;4432;50.890;4.744;2023-02-03T17:41:12;10.50;99.90
8792;DHT22;4432;50.890;4.744;2023-02-03T17:43:39;10.50;99.90
8792;DHT22;4432;50.890;4.744;2023-02-03T17:46:05;10.40;99.90
8792;DHT22;4432;50.890;4.744;2023-02-03T17:48:31;10.40;99.90
8792;DHT22;4432;50.890;4.744;2023-02-03T17:51:12;10.50;99.90
8792;DHT22;4432;50.890;4.744;2023-02-03T17:53:38;10.50;99.90
8792;DHT22;4432;50.890;4.744;2023-02-03T17:56:08;10.50;99.90
8792;DHT22;4432;50.890;4.744;2023-02-03T17:58:34;10.50;99.90
8792;DHT22;4432;50.890;4.744;2023-02-03T18:01:05;10.50;99.90
8792;DHT22;4432;50.890;4.744;2023-02-03T18:03:30;10.50;99.90
8792;DHT22;4432;50.890;4.744;2023-02-03T18:05:56;10.40;99.90
8792;DHT22;4432;50.890;4.744;2023-02-03T18:08:22;10.50;99.90
8792;DHT22;4432;50.890;4.744;2023-02-03T18:10:48;10.50;99.90
8792;DHT22;4432;50.890;4.744;2023-02-03T18:13:13;10.40;99.90
8792;DHT22;4432;50.890;4.744;2023-02-03T18:15:39;10.50;99.90
8792;DHT22;4432;50.890;4.744;2023-02-03T18:18:05;10.50;99.90
8792;DHT22;4432;50.890;4.744;2023-02-03T18:20:30;10.50;99.90
8792;DHT22;4432;50.890;4.744;2023-02-03T18:22:56;10.50;99.90
8792;DHT22;4432;50.890;4.744;2023-02-03T18:25:22;10.50;99.90
8792;DHT22;4432;50.890;4.744;2023-02-03T18:27:49;10.40;99.90
8792;DHT22;4432;50.890;4.744;2023-02-03T18:30:16;10.50;99.90
8792;DHT22;4432;50.890;4.744;2023-02-03T18:32:43;10.50;99.90
8792;DHT22;4432;50.890;4.744;2023-02-03T18:35:08;10.60;99.90
8792;DHT22;4432;50.890;4.744;2023-02-03T18:37:38;10.60;99.90
8792;DHT22;4432;50.890;4.744;2023-02-03T18:40:04;10.60;99.90
8792;DHT22;4432;50.890;4.744;2023-02-03T18:42:30;10.50;99.90
8792;DHT22;4432;50.890;4.744;2023-02-03T18:44:55;10.50;99.90
8792;DHT22;4432;50.890;4.744;2023-02-03T18:47:21;10.60;99.90
8792;DHT22;4432;50.890;4.744;2023-02-03T18:49:47;10.60;99.90
8792;DHT22;4432;50.890;4.744;2023-02-03T18:52:12;10.60;99.90
8792;DHT22;4432;50.890;4.744;2023-02-03T18:54:38;10.60;99.90
8792;DHT22;4432;50.890;4.744;2023-02-03T18:57:04;10.60;99.90
8792;DHT22;4432;50.890;4.744;2023-02-03T18:59:30;10.60;99.90
8792;DHT22;4432;50.890;4.744;2023-02-03T19:01:56;10.60;99.90
8792;DHT22;4432;50.890;4.744;2023-02-03T19:04:21;10.60;99.90
8792;DHT22;4432;50.890;4.744;2023-02-03T19:06:47;10.60;99.90
8792;DHT22;4432;50.890;4.744;2023-02-03T19:09:13;10.60;99.90